Terminal Aerodrome Forecast
Issued by NWS

Home | Current Version | Previous Version | Text Only | Print | Product List | Glossary On
Versions: 1 2 3 4 5 6 7 8 9 10 11 12 13 14 15 16
000
FTUS46 KMTR 290520
TAFOAK
TAF
KOAK 290520Z 2906/3012 29006KT P6SM OVC010
      TEMPO 2911/2915 OVC007
     FM292000 28012KT P6SM SCT010
     FM292300 28016G21KT P6SM SCT015
     FM300300 27014KT P6SM BKN015=

USA.gov is the U.S. government's official web portal to all federal, state and local government web resources and services.